createdAt,value
2023-01-23T00:02:18.428Z,11.73
2023-01-23T00:04:45.244Z,12.87
2023-01-23T00:07:11.722Z,13.60
2023-01-23T00:09:38.189Z,12.27
2023-01-23T00:12:04.672Z,11.17
2023-01-23T00:14:31.156Z,11.53
2023-01-23T00:16:57.709Z,12.73
2023-01-23T00:19:24.204Z,13.00
2023-01-23T00:21:50.698Z,13.53
2023-01-23T00:24:17.207Z,14.07
2023-01-23T00:26:43.691Z,13.73
2023-01-23T00:29:10.316Z,15.73
2023-01-23T00:31:37.253Z,15.47
2023-01-23T00:34:03.852Z,13.80
2023-01-23T00:36:30.351Z,14.60
2023-01-23T00:38:56.895Z,13.30
2023-01-23T00:41:23.403Z,13.80
2023-01-23T00:43:51.827Z,12.47
2023-01-23T00:46:18.337Z,14.83
2023-01-23T00:48:44.901Z,13.23
2023-01-23T00:51:11.495Z,14.97
2023-01-23T00:53:38.113Z,13.20
2023-01-23T00:56:04.596Z,15.63
2023-01-23T00:58:31.149Z,14.30
2023-01-23T01:00:57.617Z,13.40
2023-01-23T01:03:25.156Z,13.87
2023-01-23T01:05:51.679Z,12.37
2023-01-23T01:08:18.176Z,13.90
2023-01-23T01:10:44.652Z,11.93
2023-01-23T01:13:11.153Z,12.80
2023-01-23T01:15:37.668Z,14.60
2023-01-23T01:18:04.173Z,12.20
2023-01-23T01:20:30.644Z,13.20
2023-01-23T01:22:57.135Z,14.17
2023-01-23T01:25:23.637Z,12.63
2023-01-23T01:27:50.133Z,14.17
2023-01-23T01:30:16.725Z,12.57
2023-01-23T01:32:43.281Z,13.10
2023-01-23T01:35:09.814Z,13.37
2023-01-23T01:37:36.336Z,14.93
2023-01-23T01:40:03.252Z,12.73
2023-01-23T01:42:29.968Z,13.67
2023-01-23T01:44:56.593Z,15.03
2023-01-23T01:47:23.143Z,14.23
2023-01-23T01:49:49.614Z,14.13
2023-01-23T01:52:16.108Z,14.37
2023-01-23T01:54:42.686Z,15.23
2023-01-23T01:57:09.204Z,13.97
2023-01-23T01:59:35.688Z,13.57
2023-01-23T02:02:05.071Z,14.30
2023-01-23T02:04:31.622Z,14.20
2023-01-23T02:06:58.119Z,14.10
2023-01-23T02:09:24.605Z,14.80
2023-01-23T02:11:51.120Z,13.47
2023-01-23T02:14:17.604Z,14.30
2023-01-23T02:16:50.007Z,14.37
2023-01-23T02:19:16.560Z,14.63
2023-01-23T02:21:43.484Z,14.00
2023-01-23T02:24:10.050Z,13.90
2023-01-23T02:26:36.630Z,13.30
2023-01-23T02:29:03.168Z,13.27
2023-01-23T02:31:29.880Z,12.53
2023-01-23T02:33:56.426Z,12.83
2023-01-23T02:36:22.968Z,14.90
2023-01-23T02:38:50.908Z,14.30
2023-01-23T02:41:17.376Z,14.47
2023-01-23T02:43:43.937Z,15.33
2023-01-23T02:46:10.515Z,13.67
2023-01-23T02:48:37.343Z,14.90
2023-01-23T02:51:03.917Z,16.30
2023-01-23T02:53:30.569Z,14.10
2023-01-23T02:55:58.687Z,14.20
2023-01-23T02:58:43.878Z,14.40
2023-01-23T03:01:10.443Z,14.47
2023-01-23T03:03:37.035Z,14.30
2023-01-23T03:06:04.027Z,13.63
2023-01-23T03:08:34.223Z,12.83
2023-01-23T03:11:00.703Z,13.67
2023-01-23T03:13:27.193Z,13.13
2023-01-23T03:15:53.716Z,13.17
2023-01-23T03:18:20.445Z,14.53
2023-01-23T03:20:46.920Z,12.40
2023-01-23T03:23:14.568Z,14.57
2023-01-23T03:25:41.077Z,13.40
2023-01-23T03:28:27.550Z,14.80
2023-01-23T03:30:54.056Z,15.93
2023-01-23T03:33:20.587Z,13.30
2023-01-23T03:35:47.076Z,15.30
2023-01-23T03:38:15.874Z,14.53
2023-01-23T03:41:00.939Z,14.43
2023-01-23T03:43:27.444Z,15.00
2023-01-23T03:45:53.969Z,13.23
2023-01-23T03:48:20.456Z,13.37
2023-01-23T03:50:47.179Z,13.20
2023-01-23T03:53:13.756Z,13.00
2023-01-23T03:55:40.268Z,13.30
2023-01-23T03:58:06.756Z,13.87
2023-01-23T04:00:33.288Z,13.97
2023-01-23T04:02:59.920Z,12.83
2023-01-23T04:05:26.668Z,12.80
2023-01-23T04:07:53.184Z,13.80
2023-01-23T04:10:19.918Z,13.63
2023-01-23T04:12:46.576Z,13.20
2023-01-23T04:15:13.115Z,14.83
2023-01-23T04:17:42.116Z,12.70
2023-01-23T04:20:08.923Z,13.07
2023-01-23T04:22:35.517Z,12.20
2023-01-23T04:25:01.988Z,13.40
2023-01-23T04:27:28.490Z,15.17
2023-01-23T04:29:55.009Z,13.10
2023-01-23T04:32:21.520Z,10.80
2023-01-23T04:34:47.987Z,12.03
2023-01-23T04:37:14.483Z,13.73
2023-01-23T04:39:40.957Z,12.70
2023-01-23T04:42:07.459Z,11.37
2023-01-23T04:44:33.963Z,12.10
2023-01-23T04:47:00.526Z,13.20
2023-01-23T04:49:27.030Z,13.77
2023-01-23T04:51:53.503Z,12.87
2023-01-23T04:54:20.020Z,12.30
2023-01-23T04:56:46.558Z,14.43
2023-01-23T04:59:13.053Z,11.07
2023-01-23T05:01:39.631Z,12.93
2023-01-23T05:04:06.182Z,11.47
2023-01-23T05:06:32.656Z,12.40
2023-01-23T05:08:59.197Z,13.27
2023-01-23T05:11:25.753Z,13.40
2023-01-23T05:13:52.321Z,12.33
2023-01-23T05:16:18.860Z,13.30
2023-01-23T05:18:45.341Z,12.80
2023-01-23T05:21:11.880Z,14.13
2023-01-23T05:23:38.567Z,13.13
2023-01-23T05:26:05.140Z,12.57
2023-01-23T05:28:31.726Z,13.07
2023-01-23T05:30:58.289Z,13.27
2023-01-23T05:33:24.874Z,12.33
2023-01-23T05:35:51.356Z,11.97
2023-01-23T05:38:17.842Z,10.50
2023-01-23T05:40:44.371Z,11.60
2023-01-23T05:43:10.945Z,12.50
2023-01-23T05:45:37.443Z,12.70
2023-01-23T05:48:03.904Z,14.17
2023-01-23T05:50:30.380Z,13.37
2023-01-23T05:52:56.875Z,15.27
2023-01-23T05:55:23.351Z,12.10
2023-01-23T05:57:49.933Z,13.60
2023-01-23T06:00:16.436Z,13.47
2023-01-23T06:02:43.091Z,13.87
2023-01-23T06:05:09.658Z,13.17
2023-01-23T06:07:37.339Z,12.57
2023-01-23T06:10:03.853Z,11.47
2023-01-23T06:12:30.380Z,11.50
2023-01-23T06:14:56.912Z,11.57
2023-01-23T06:17:23.424Z,11.60
2023-01-23T06:19:49.935Z,12.17
2023-01-23T06:22:16.469Z,9.73
2023-01-23T06:24:43.000Z,12.63
2023-01-23T06:27:09.572Z,13.47
2023-01-23T06:29:36.116Z,11.90
2023-01-23T06:32:02.597Z,12.63
2023-01-23T06:34:29.173Z,12.70
2023-01-23T06:36:55.644Z,14.40
2023-01-23T06:39:22.124Z,12.10
2023-01-23T06:41:48.586Z,11.83
2023-01-23T06:44:15.079Z,11.97
2023-01-23T06:46:41.627Z,13.07
2023-01-23T06:49:08.152Z,12.33
2023-01-23T06:51:34.735Z,13.90
2023-01-23T06:54:01.313Z,13.93
2023-01-23T06:56:27.771Z,12.83
2023-01-23T06:58:54.325Z,11.00
2023-01-23T07:01:20.877Z,12.63
2023-01-23T07:03:47.615Z,14.40
2023-01-23T07:06:14.105Z,13.93
2023-01-23T07:08:40.653Z,12.57
2023-01-23T07:11:07.158Z,14.70
2023-01-23T07:13:33.707Z,13.47
2023-01-23T07:16:00.210Z,15.20
2023-01-23T07:18:28.542Z,12.90
2023-01-23T07:20:55.039Z,13.03
2023-01-23T07:23:21.545Z,12.27
2023-01-23T07:25:48.038Z,13.10
2023-01-23T07:28:14.526Z,12.20
2023-01-23T07:30:41.048Z,13.67
2023-01-23T07:33:07.544Z,12.90
2023-01-23T07:35:34.060Z,11.47
2023-01-23T07:38:00.544Z,12.27
2023-01-23T07:40:27.114Z,15.10
2023-01-23T07:42:53.662Z,13.53
2023-01-23T07:45:20.157Z,13.20
2023-01-23T07:47:46.772Z,13.90
2023-01-23T07:50:13.340Z,13.20
2023-01-23T07:52:39.814Z,12.87
2023-01-23T07:55:06.297Z,13.03
2023-01-23T07:57:33.943Z,13.37
2023-01-23T08:00:00.502Z,14.03
2023-01-23T08:02:27.002Z,14.30
2023-01-23T08:04:53.484Z,13.53
2023-01-23T08:07:20.027Z,15.53
2023-01-23T08:09:46.513Z,14.17
2023-01-23T08:12:13.041Z,13.40
2023-01-23T08:14:40.655Z,13.67
2023-01-23T08:17:07.205Z,14.37
2023-01-23T08:19:33.707Z,15.07
2023-01-23T08:22:00.200Z,15.43
2023-01-23T08:24:26.879Z,17.17
2023-01-23T08:26:53.373Z,13.90
2023-01-23T08:29:19.873Z,14.77
2023-01-23T08:31:46.391Z,13.83
2023-01-23T08:34:12.932Z,15.13
2023-01-23T08:36:39.589Z,13.90
2023-01-23T08:39:06.071Z,14.53
2023-01-23T08:41:32.552Z,15.50
2023-01-23T08:44:01.603Z,13.73
2023-01-23T08:46:28.708Z,12.93
2023-01-23T08:48:55.227Z,14.77
2023-01-23T08:51:21.769Z,13.23
2023-01-23T08:53:48.273Z,13.87
2023-01-23T08:56:16.830Z,14.60
2023-01-23T08:58:43.755Z,12.70
2023-01-23T09:01:10.298Z,14.57
2023-01-23T09:03:36.849Z,15.33
2023-01-23T09:06:03.425Z,12.40
2023-01-23T09:08:29.903Z,13.87
2023-01-23T09:10:56.401Z,15.90
2023-01-23T09:13:22.924Z,16.87
2023-01-23T09:15:49.449Z,15.07
2023-01-23T09:18:15.999Z,14.70
2023-01-23T09:20:42.613Z,16.20
2023-01-23T09:23:09.121Z,12.20
2023-01-23T09:25:35.767Z,12.10
2023-01-23T09:28:02.295Z,10.97
2023-01-23T09:30:28.831Z,12.80
2023-01-23T09:32:55.361Z,13.70
2023-01-23T09:35:23.341Z,13.23
2023-01-23T09:38:02.345Z,12.30
2023-01-23T09:40:29.017Z,15.40
2023-01-23T09:42:55.506Z,12.20
2023-01-23T09:45:22.112Z,10.90
2023-01-23T09:47:48.615Z,19.57
2023-01-23T09:50:15.165Z,14.80
2023-01-23T09:52:41.702Z,12.10
2023-01-23T09:55:08.204Z,12.60
2023-01-23T09:57:34.713Z,11.50
2023-01-23T10:00:01.235Z,12.40
2023-01-23T10:02:27.919Z,12.00
2023-01-23T10:04:54.552Z,12.07
2023-01-23T10:07:21.079Z,10.57
2023-01-23T10:09:47.620Z,11.73
2023-01-23T10:12:14.096Z,13.23
2023-01-23T10:14:40.727Z,10.77
2023-01-23T10:17:07.236Z,13.13
2023-01-23T10:19:33.910Z,10.80
2023-01-23T10:22:01.449Z,10.37
2023-01-23T10:24:28.014Z,10.97
2023-01-23T10:26:54.546Z,12.87
2023-01-23T10:29:21.163Z,11.60
2023-01-23T10:31:47.788Z,12.87
2023-01-23T10:34:14.345Z,12.87
2023-01-23T10:36:48.134Z,12.00
2023-01-23T10:39:20.281Z,12.97
2023-01-23T10:41:51.097Z,10.80
2023-01-23T10:44:17.839Z,12.63
2023-01-23T10:46:44.490Z,11.87
2023-01-23T10:49:11.024Z,11.97
2023-01-23T10:51:37.538Z,12.90
2023-01-23T10:54:06.280Z,11.73
2023-01-23T10:56:33.392Z,12.27
2023-01-23T10:59:00.099Z,12.83
2023-01-23T11:01:26.692Z,13.47
2023-01-23T11:03:53.268Z,15.80
2023-01-23T11:06:19.861Z,13.00
2023-01-23T11:08:46.345Z,13.07
2023-01-23T11:11:12.867Z,13.33
2023-01-23T11:13:39.354Z,12.30
2023-01-23T11:16:06.224Z,13.93
2023-01-23T11:18:33.052Z,13.50
2023-01-23T11:20:59.545Z,13.07
2023-01-23T11:23:26.102Z,13.67
2023-01-23T11:25:52.684Z,13.63
2023-01-23T11:28:19.195Z,15.37
2023-01-23T11:30:45.897Z,14.30
2023-01-23T11:33:12.452Z,19.07
2023-01-23T11:35:38.987Z,13.43
2023-01-23T11:38:05.736Z,13.13
2023-01-23T11:40:32.272Z,14.83
2023-01-23T11:42:58.903Z,15.33
2023-01-23T11:45:25.393Z,15.80
2023-01-23T11:47:51.921Z,14.17
2023-01-23T11:50:18.533Z,16.10
2023-01-23T11:52:45.152Z,14.27
2023-01-23T11:55:11.665Z,15.30
2023-01-23T11:57:38.154Z,14.57
2023-01-23T12:00:07.254Z,13.30
2023-01-23T12:02:33.884Z,16.43
2023-01-23T12:05:00.398Z,12.40
2023-01-23T12:07:26.894Z,14.47
2023-01-23T12:09:53.407Z,13.07
2023-01-23T12:12:19.958Z,15.80
2023-01-23T12:14:46.486Z,12.73
2023-01-23T12:17:13.057Z,13.00
2023-01-23T12:19:39.526Z,14.00
2023-01-23T12:22:06.324Z,14.63
2023-01-23T12:24:32.827Z,11.20
2023-01-23T12:26:59.293Z,14.90
2023-01-23T12:29:25.827Z,13.40
2023-01-23T12:31:52.459Z,15.77
2023-01-23T12:34:19.411Z,15.63
2023-01-23T12:37:06.281Z,15.63
2023-01-23T12:39:34.279Z,12.90
2023-01-23T12:42:03.729Z,14.53
2023-01-23T12:44:30.292Z,11.77
2023-01-23T12:46:56.969Z,13.70
2023-01-23T12:49:23.552Z,13.80
2023-01-23T12:51:50.070Z,12.77
2023-01-23T12:54:16.638Z,13.37
2023-01-23T12:56:43.386Z,13.93
2023-01-23T12:59:10.311Z,12.77
2023-01-23T13:01:36.777Z,13.73
2023-01-23T13:04:03.366Z,12.80
2023-01-23T13:06:29.848Z,14.47
2023-01-23T13:09:05.495Z,14.40
2023-01-23T13:11:42.013Z,14.23
2023-01-23T13:14:08.528Z,13.83
2023-01-23T13:16:35.174Z,12.90
2023-01-23T13:19:20.516Z,13.03
2023-01-23T13:22:02.994Z,12.23
2023-01-23T13:24:48.180Z,13.80
2023-01-23T13:27:14.655Z,12.63
2023-01-23T13:29:41.346Z,12.10
2023-01-23T13:32:08.060Z,12.50
2023-01-23T13:34:34.640Z,13.17
2023-01-23T13:37:01.112Z,13.17
2023-01-23T13:39:27.627Z,13.10
2023-01-23T13:41:54.177Z,12.80
2023-01-23T13:44:22.981Z,13.87
2023-01-23T14:20:55.338Z,11.00
2023-01-23T14:23:22.128Z,11.57
2023-01-23T14:25:48.680Z,11.40
2023-01-23T14:28:15.272Z,11.17
2023-01-23T14:30:41.771Z,16.23
2023-01-23T14:33:08.267Z,12.30
2023-01-23T14:35:34.783Z,12.63
2023-01-23T14:38:01.339Z,14.50
2023-01-23T14:40:33.199Z,11.50
2023-01-23T14:43:04.068Z,12.60
2023-01-23T14:45:32.872Z,11.97
2023-01-23T14:48:05.671Z,12.67
2023-01-23T14:50:33.180Z,12.07
2023-01-23T14:52:59.805Z,12.07
2023-01-23T14:55:29.905Z,13.57
2023-01-23T14:57:56.688Z,10.80
2023-01-23T15:00:23.191Z,12.90
2023-01-23T15:02:54.399Z,11.17
2023-01-23T15:05:23.484Z,11.47
2023-01-23T15:07:50.233Z,12.60
2023-01-23T15:10:16.797Z,12.20
2023-01-23T15:12:43.281Z,10.90
2023-01-23T15:15:09.815Z,11.90
2023-01-23T15:17:36.288Z,9.87
2023-01-23T15:20:02.751Z,11.60
2023-01-23T15:22:29.218Z,12.63
2023-01-23T15:24:55.935Z,14.30
2023-01-23T15:27:23.474Z,11.20
2023-01-23T15:29:49.979Z,10.60
2023-01-23T15:32:16.500Z,12.20
2023-01-23T15:34:43.264Z,11.67
2023-01-23T15:37:09.751Z,13.93
2023-01-23T15:39:36.341Z,10.93
2023-01-23T15:42:02.844Z,12.40
2023-01-23T15:44:29.341Z,14.40
2023-01-23T15:46:55.878Z,11.33
2023-01-23T15:49:25.872Z,12.33
2023-01-23T15:51:53.007Z,13.13
2023-01-23T15:54:19.488Z,11.30
2023-01-23T15:56:48.807Z,11.13
2023-01-23T15:59:17.397Z,11.80
2023-01-23T16:01:43.915Z,11.87
2023-01-23T16:04:10.462Z,12.67
2023-01-23T16:06:37.102Z,13.37
2023-01-23T16:09:05.690Z,13.13
2023-01-23T16:11:32.674Z,11.77
2023-01-23T16:13:59.297Z,11.43
2023-01-23T16:16:25.834Z,13.40
2023-01-23T16:18:52.422Z,11.47
2023-01-23T16:21:18.886Z,11.23
2023-01-23T16:23:47.519Z,10.70
2023-01-23T16:26:14.470Z,10.53
2023-01-23T16:28:41.103Z,10.80
2023-01-23T16:31:07.593Z,10.07
2023-01-23T16:33:34.159Z,10.10
2023-01-23T16:36:00.646Z,10.87
2023-01-23T16:38:27.139Z,14.80
2023-01-23T16:40:53.808Z,12.73
2023-01-23T16:43:20.384Z,13.90
2023-01-23T16:45:46.890Z,11.93
2023-01-23T16:48:21.799Z,15.40
2023-01-23T16:50:52.166Z,11.50
2023-01-23T16:53:18.685Z,12.00
2023-01-23T16:55:45.167Z,11.73
2023-01-23T16:58:11.649Z,11.77
2023-01-23T17:00:38.225Z,11.13
2023-01-23T17:03:04.793Z,10.43
2023-01-23T17:05:31.391Z,11.67
2023-01-23T17:07:57.940Z,10.63
2023-01-23T17:10:26.215Z,11.33
2023-01-23T17:12:56.206Z,11.60
2023-01-23T17:15:22.893Z,9.40
2023-01-23T17:17:51.136Z,11.67
2023-01-23T17:20:17.700Z,8.93
2023-01-23T17:22:44.265Z,11.80
2023-01-23T17:25:10.750Z,9.70
2023-01-23T17:27:44.964Z,9.93
2023-01-23T17:30:12.746Z,11.33
2023-01-23T17:32:39.852Z,10.90
2023-01-23T17:35:06.372Z,9.70
2023-01-23T17:37:32.836Z,16.30
2023-01-23T17:39:59.353Z,9.87
2023-01-23T17:42:26.044Z,9.23
2023-01-23T17:44:52.627Z,11.30
2023-01-23T17:47:19.208Z,10.87
2023-01-23T17:49:46.772Z,13.60
2023-01-23T17:52:13.271Z,12.27
2023-01-23T17:54:39.819Z,11.90
2023-01-23T17:57:06.373Z,11.20
2023-01-23T17:59:32.991Z,12.83
2023-01-23T18:01:59.573Z,12.07
2023-01-23T18:04:26.146Z,12.33
2023-01-23T18:06:52.770Z,9.90
2023-01-23T18:09:19.996Z,11.80
2023-01-23T18:11:54.322Z,9.93
2023-01-23T18:14:20.886Z,8.60
2023-01-23T18:16:49.692Z,7.33
2023-01-23T18:19:16.413Z,8.63
2023-01-23T18:21:42.926Z,8.53
2023-01-23T18:24:09.474Z,9.23
2023-01-23T18:26:36.295Z,9.80
2023-01-23T18:29:02.773Z,9.50
2023-01-23T18:31:29.439Z,10.50
2023-01-23T18:33:56.004Z,10.50
2023-01-23T18:36:22.489Z,9.33
2023-01-23T18:38:49.044Z,7.80
2023-01-23T18:41:15.671Z,8.73
2023-01-23T18:43:43.629Z,7.77
2023-01-23T18:46:10.331Z,8.10
2023-01-23T18:48:36.820Z,9.80
2023-01-23T18:51:03.323Z,8.00
2023-01-23T18:53:29.783Z,7.73
2023-01-23T18:55:56.307Z,7.83
2023-01-23T18:58:22.817Z,7.93
2023-01-23T19:00:49.372Z,7.33
2023-01-23T19:03:15.930Z,8.00
2023-01-23T19:05:42.546Z,7.03
2023-01-23T19:08:09.275Z,8.00
2023-01-23T19:10:47.638Z,12.50
2023-01-23T19:13:15.144Z,7.57
2023-01-23T19:15:42.165Z,7.27
2023-01-23T19:18:08.715Z,7.23
2023-01-23T19:20:35.257Z,7.00
2023-01-23T19:23:01.802Z,6.57
2023-01-23T19:25:28.335Z,6.60
2023-01-23T19:27:55.961Z,5.80
2023-01-23T19:30:23.000Z,6.23
2023-01-23T19:32:49.737Z,6.43
2023-01-23T19:35:16.247Z,6.37
2023-01-23T19:37:44.270Z,6.13
2023-01-23T19:40:10.774Z,6.73
2023-01-23T19:42:45.358Z,7.73
2023-01-23T19:45:17.562Z,7.00
2023-01-23T19:47:44.468Z,7.53
2023-01-23T19:50:10.952Z,8.20
2023-01-23T19:52:37.485Z,8.73
2023-01-23T19:55:03.957Z,9.20
2023-01-23T19:57:30.505Z,8.70
2023-01-23T19:59:57.058Z,9.13
2023-01-23T20:02:25.498Z,8.17
2023-01-23T20:04:52.108Z,9.43
2023-01-23T20:07:18.641Z,8.50
2023-01-23T20:09:45.519Z,9.43
2023-01-23T20:12:12.069Z,10.70
2023-01-23T20:14:38.548Z,9.87
2023-01-23T20:17:05.132Z,9.20
2023-01-23T20:19:31.635Z,9.30
2023-01-23T20:21:58.157Z,12.67
2023-01-23T20:24:24.694Z,10.30
2023-01-23T20:26:51.705Z,14.47
2023-01-23T20:29:18.305Z,14.50
2023-01-23T20:31:44.851Z,9.90
2023-01-23T20:34:11.472Z,15.47
2023-01-23T20:36:37.988Z,14.57
2023-01-23T20:39:05.721Z,12.40
2023-01-23T20:41:35.424Z,12.83
2023-01-23T20:44:01.931Z,11.60
2023-01-23T20:46:28.728Z,11.80
2023-01-23T20:48:55.309Z,11.10
2023-01-23T20:51:21.816Z,13.30
2023-01-23T20:53:49.297Z,11.60
2023-01-23T20:56:15.898Z,12.87
2023-01-23T20:59:01.419Z,10.93
2023-01-23T21:01:28.009Z,10.77
2023-01-23T21:03:54.879Z,10.70
2023-01-23T21:06:21.482Z,11.13
2023-01-23T21:08:47.963Z,11.07
2023-01-23T21:11:14.464Z,10.80
2023-01-23T21:13:40.941Z,11.50
2023-01-23T21:16:07.542Z,12.33
2023-01-23T21:18:34.046Z,10.87
2023-01-23T21:21:00.516Z,10.67
2023-01-23T21:23:26.997Z,11.20
2023-01-23T21:25:53.465Z,10.43
2023-01-23T21:28:20.319Z,9.87
2023-01-23T21:30:46.891Z,9.60
2023-01-23T21:33:13.509Z,8.90
2023-01-23T21:35:40.256Z,8.80
2023-01-23T21:38:06.793Z,9.00
2023-01-23T21:40:33.350Z,8.87
2023-01-23T21:42:59.845Z,10.20
2023-01-23T21:45:26.353Z,8.17
2023-01-23T21:47:52.873Z,7.90
2023-01-23T21:50:19.356Z,7.33
2023-01-23T21:52:45.997Z,6.27
2023-01-23T21:55:12.472Z,6.37
2023-01-23T21:57:38.940Z,7.27
2023-01-23T22:00:24.360Z,6.50
2023-01-23T22:02:51.006Z,7.23
2023-01-23T22:05:17.543Z,6.60
2023-01-23T22:07:44.057Z,7.77
2023-01-23T22:10:10.582Z,7.80
2023-01-23T22:12:37.129Z,6.63
2023-01-23T22:15:03.630Z,6.67
2023-01-23T22:17:30.304Z,6.60
2023-01-23T22:19:56.796Z,7.57
2023-01-23T22:22:23.260Z,8.53
2023-01-23T22:24:49.746Z,7.20
2023-01-23T22:27:16.303Z,8.30
2023-01-23T22:29:43.409Z,7.33
2023-01-23T22:32:09.949Z,7.13
2023-01-23T22:34:36.544Z,7.07
2023-01-23T22:37:03.076Z,7.10
2023-01-23T22:39:29.904Z,7.07
2023-01-23T22:41:57.687Z,9.40
2023-01-23T22:44:24.233Z,7.93
2023-01-23T22:46:51.387Z,8.27
2023-01-23T22:49:18.008Z,7.67
2023-01-23T22:51:44.522Z,6.30
2023-01-23T22:54:11.121Z,7.30
2023-01-23T22:56:37.708Z,7.87
2023-01-23T22:59:04.231Z,7.43
2023-01-23T23:01:30.790Z,6.30
2023-01-23T23:03:57.804Z,6.40
2023-01-23T23:06:24.352Z,5.73
2023-01-23T23:08:50.915Z,5.43
2023-01-23T23:11:17.415Z,6.70
2023-01-23T23:13:43.950Z,5.03
2023-01-23T23:16:10.445Z,5.80
2023-01-23T23:18:39.194Z,5.70
2023-01-23T23:21:06.070Z,6.00
2023-01-23T23:23:32.574Z,5.07
2023-01-23T23:25:59.054Z,5.80
2023-01-23T23:28:25.584Z,4.93
2023-01-23T23:30:52.041Z,5.77
2023-01-23T23:33:18.589Z,5.50
2023-01-23T23:35:45.052Z,5.80
2023-01-23T23:38:11.557Z,5.90
2023-01-23T23:40:38.105Z,5.40
2023-01-23T23:43:04.659Z,6.47
2023-01-23T23:45:31.192Z,6.17
2023-01-23T23:47:57.711Z,6.20
2023-01-23T23:50:24.209Z,6.70
2023-01-23T23:52:50.722Z,6.60
2023-01-23T23:55:17.209Z,5.80
2023-01-23T23:57:43.913Z,6.30
